createdAt,value
2023-03-29T00:03:05.162Z,-0.08
2023-03-29T00:09:09.686Z,-0.14
2023-03-29T00:15:11.902Z,-0.13
2023-03-29T00:21:15.379Z,0.03
2023-03-29T00:27:20.872Z,-0.01
2023-03-29T00:33:26.359Z,-0.03
2023-03-29T00:39:29.910Z,0.01
2023-03-29T00:45:32.011Z,-1.06
2023-03-29T00:51:38.826Z,-0.71
2023-03-29T00:57:47.345Z,-0.10
2023-03-29T01:03:54.737Z,0.02
2023-03-29T01:10:06.459Z,0.17
2023-03-29T01:16:13.227Z,0.08
2023-03-29T01:22:34.399Z,0.10
2023-03-29T01:28:49.639Z,0.02
2023-03-29T01:35:02.382Z,-0.24
2023-03-29T01:41:05.068Z,-0.13
2023-03-29T01:47:47.575Z,-0.60
2023-03-29T01:54:00.035Z,-0.62
2023-03-29T02:00:08.298Z,-0.36
2023-03-29T02:06:17.082Z,-0.48
2023-03-29T02:12:20.069Z,-0.53
2023-03-29T02:18:21.811Z,-0.61
2023-03-29T02:24:26.397Z,-0.68
2023-03-29T02:30:36.951Z,-0.68
2023-03-29T02:36:52.551Z,-0.80
2023-03-29T02:42:56.375Z,-0.96
2023-03-29T02:48:59.218Z,-0.94
2023-03-29T02:55:03.363Z,-1.11
2023-03-29T03:01:07.155Z,-1.01
2023-03-29T03:07:09.467Z,-1.62
2023-03-29T03:13:11.771Z,-1.05
2023-03-29T03:19:14.625Z,-1.18
2023-03-29T03:25:19.611Z,-1.63
2023-03-29T03:31:21.865Z,-1.33
2023-03-29T03:37:23.751Z,-1.52
2023-03-29T03:43:26.191Z,-1.51
2023-03-29T03:49:28.257Z,-1.54
2023-03-29T03:55:32.633Z,-1.72
2023-03-29T04:01:35.608Z,-1.42
2023-03-29T04:07:37.441Z,-1.28
2023-03-29T04:13:39.385Z,-1.37
2023-03-29T04:19:41.163Z,-1.38
2023-03-29T04:25:43.276Z,-1.34
2023-03-29T04:31:45.123Z,-1.28
2023-03-29T04:37:46.927Z,-1.57
2023-03-29T04:43:48.905Z,-1.33
2023-03-29T04:49:50.934Z,-1.02
2023-03-29T04:55:55.739Z,-1.15
2023-03-29T05:01:58.131Z,-1.15
2023-03-29T05:07:59.944Z,-0.51
2023-03-29T05:14:03.501Z,-0.64
2023-03-29T05:20:13.256Z,-0.84
2023-03-29T05:26:15.556Z,-0.18
2023-03-29T05:32:17.693Z,-0.05
2023-03-29T05:38:19.483Z,-0.02
2023-03-29T05:44:21.307Z,0.37
2023-03-29T05:50:23.485Z,0.07
2023-03-29T05:56:26.284Z,0.56
2023-03-29T06:02:28.770Z,0.56
2023-03-29T06:08:32.084Z,0.78
2023-03-29T06:14:34.093Z,-0.16
2023-03-29T06:20:37.120Z,0.51
2023-03-29T06:26:38.850Z,-0.03
2023-03-29T06:32:41.411Z,0.16
2023-03-29T06:38:45.602Z,0.04
2023-03-29T06:44:47.978Z,0.08
2023-03-29T06:50:49.895Z,0.30
2023-03-29T06:56:52.465Z,0.53
2023-03-29T07:02:56.396Z,0.21
2023-03-29T07:09:01.027Z,0.47
2023-03-29T07:15:03.358Z,-0.28
2023-03-29T07:21:06.625Z,-0.24
2023-03-29T07:27:09.442Z,0.29
2023-03-29T07:33:13.713Z,0.54
2023-03-29T07:39:16.038Z,0.65
2023-03-29T07:45:26.879Z,0.96
2023-03-29T07:51:31.013Z,0.30
2023-03-29T07:57:33.506Z,0.24
2023-03-29T08:03:35.987Z,1.11
2023-03-29T08:09:39.699Z,1.48
2023-03-29T08:15:46.257Z,1.14
2023-03-29T08:21:48.802Z,1.16
2023-03-29T08:27:50.771Z,0.44
2023-03-29T08:33:55.672Z,0.72
2023-03-29T08:39:58.829Z,1.91
2023-03-29T08:46:08.399Z,1.68
2023-03-29T08:52:38.908Z,-0.24
2023-03-29T08:58:44.579Z,-1.01
2023-03-29T09:04:50.917Z,-0.42
2023-03-29T09:11:18.476Z,0.48
2023-03-29T09:17:33.342Z,1.13
2023-03-29T09:24:16.601Z,-0.86
2023-03-29T09:30:37.167Z,-0.01
2023-03-29T09:37:12.785Z,0.71
2023-03-29T09:43:28.335Z,0.25
2023-03-29T09:49:40.126Z,0.29
2023-03-29T09:55:46.293Z,0.56
2023-03-29T10:01:49.986Z,1.37
2023-03-29T10:07:56.834Z,1.92
2023-03-29T10:14:06.789Z,1.75
2023-03-29T10:20:16.317Z,2.00
2023-03-29T10:26:44.975Z,1.56
2023-03-29T10:32:47.472Z,2.16
2023-03-29T10:38:51.955Z,1.69
2023-03-29T10:44:59.510Z,0.57
2023-03-29T10:51:04.176Z,0.12
2023-03-29T10:57:12.472Z,-0.58
2023-03-29T11:03:33.043Z,0.63
2023-03-29T11:09:46.513Z,1.09
2023-03-29T11:16:05.080Z,1.58
2023-03-29T11:22:13.501Z,2.64
2023-03-29T11:28:39.091Z,2.39
2023-03-29T11:35:12.390Z,2.26
2023-03-29T11:41:21.194Z,2.92
2023-03-29T11:47:28.740Z,2.03
2023-03-29T11:54:04.944Z,2.29
2023-03-29T12:00:16.807Z,1.68
2023-03-29T12:06:45.650Z,1.92
2023-03-29T12:13:02.337Z,2.64
2023-03-29T12:19:29.514Z,2.69
2023-03-29T12:25:44.998Z,2.34
2023-03-29T12:31:53.559Z,2.68
2023-03-29T12:38:25.131Z,2.55
2023-03-29T12:44:27.592Z,3.39
2023-03-29T12:50:43.091Z,2.67
2023-03-29T12:57:00.719Z,2.93
2023-03-29T13:03:06.832Z,3.48
2023-03-29T13:09:23.468Z,3.83
2023-03-29T13:15:28.239Z,3.53
2023-03-29T13:21:41.710Z,3.72
2023-03-29T13:27:59.218Z,4.00
2023-03-29T13:34:10.753Z,4.10
2023-03-29T13:40:45.309Z,4.26
2023-03-29T13:46:48.862Z,3.20
2023-03-29T13:53:10.455Z,4.07
2023-03-29T13:59:30.952Z,4.02
2023-03-29T14:05:37.444Z,3.31
2023-03-29T14:11:48.955Z,3.90
2023-03-29T14:18:00.716Z,4.08
2023-03-29T14:24:03.932Z,4.18
2023-03-29T14:30:28.510Z,3.44
2023-03-29T14:36:32.631Z,4.03
2023-03-29T14:42:34.716Z,4.05
2023-03-29T14:48:37.190Z,3.84
2023-03-29T14:54:45.805Z,4.17
2023-03-29T15:00:50.803Z,4.04
2023-03-29T15:06:53.142Z,4.16
2023-03-29T15:12:56.146Z,4.01
2023-03-29T15:18:58.819Z,4.13
2023-03-29T15:25:02.857Z,3.95
2023-03-29T15:31:12.208Z,4.12
2023-03-29T15:37:14.786Z,4.29
2023-03-29T15:43:17.255Z,4.10
2023-03-29T15:49:19.778Z,4.08
2023-03-29T15:55:24.197Z,3.83
2023-03-29T16:01:36.716Z,4.01
2023-03-29T16:07:39.190Z,4.08
2023-03-29T16:13:44.695Z,3.93
2023-03-29T16:19:46.451Z,3.65
2023-03-29T16:25:48.228Z,3.60
2023-03-29T16:31:50.697Z,3.38
2023-03-29T16:37:52.559Z,3.26
2023-03-29T16:43:56.142Z,3.58
2023-03-29T16:49:58.577Z,2.20
2023-03-29T16:56:01.176Z,3.30
2023-03-29T17:02:03.486Z,2.91
2023-03-29T17:08:06.139Z,2.96
2023-03-29T17:14:09.384Z,3.01
2023-03-29T17:20:13.896Z,2.61
2023-03-29T17:26:18.220Z,2.99
2023-03-29T17:32:20.400Z,2.94
2023-03-29T17:38:22.723Z,2.83
2023-03-29T17:44:24.884Z,2.91
2023-03-29T17:50:29.316Z,2.76
2023-03-29T17:56:32.769Z,2.52
2023-03-29T18:02:34.812Z,2.70
2023-03-29T18:08:42.137Z,2.62
2023-03-29T18:14:44.180Z,2.80
2023-03-29T18:20:47.672Z,2.62
2023-03-29T18:26:50.152Z,2.42
2023-03-29T18:32:52.695Z,2.54
2023-03-29T18:38:55.977Z,2.43
2023-03-29T18:44:58.571Z,2.33
2023-03-29T18:51:01.869Z,2.38
2023-03-29T18:57:08.545Z,2.52
2023-03-29T19:03:12.067Z,2.24
2023-03-29T19:09:14.465Z,1.83
2023-03-29T19:15:16.934Z,2.15
2023-03-29T19:21:21.425Z,2.04
2023-03-29T19:27:25.758Z,1.96
2023-03-29T19:33:31.411Z,2.53
2023-03-29T19:39:33.883Z,1.94
2023-03-29T19:45:38.329Z,2.06
2023-03-29T19:51:41.820Z,1.73
2023-03-29T19:57:44.325Z,2.28
2023-03-29T20:03:47.778Z,1.71
2023-03-29T20:09:49.697Z,1.81
2023-03-29T20:15:51.775Z,1.97
2023-03-29T20:21:57.807Z,2.27
2023-03-29T20:28:00.799Z,2.48
2023-03-29T20:34:03.208Z,2.21
2023-03-29T20:40:06.710Z,2.07
2023-03-29T20:46:19.219Z,2.02
2023-03-29T20:52:23.756Z,2.27
2023-03-29T20:58:28.222Z,1.52
2023-03-29T21:04:31.650Z,2.07
2023-03-29T21:10:34.109Z,1.39
2023-03-29T21:16:36.594Z,1.00
2023-03-29T21:22:40.080Z,1.55
2023-03-29T21:28:43.512Z,1.61
2023-03-29T21:34:45.973Z,1.13
2023-03-29T21:40:48.487Z,1.13
2023-03-29T21:46:50.963Z,1.27
2023-03-29T21:52:53.424Z,1.10
2023-03-29T21:58:58.193Z,0.77
2023-03-29T22:05:00.191Z,1.02
2023-03-29T22:11:08.210Z,1.14
2023-03-29T22:17:10.450Z,0.74
2023-03-29T22:23:13.417Z,-0.38
2023-03-29T22:29:15.248Z,0.66
2023-03-29T22:35:17.133Z,0.74
2023-03-29T22:41:21.924Z,0.65
2023-03-29T22:47:23.696Z,0.62
2023-03-29T22:53:26.040Z,0.62
2023-03-29T22:59:27.992Z,0.42
2023-03-29T23:05:29.741Z,0.12
2023-03-29T23:11:32.980Z,0.52
2023-03-29T23:17:35.084Z,0.37
2023-03-29T23:23:37.446Z,0.34
2023-03-29T23:29:39.301Z,0.36
2023-03-29T23:35:41.394Z,-0.89
2023-03-29T23:41:43.131Z,-1.26
2023-03-29T23:47:45.938Z,-0.23
2023-03-29T23:53:48.868Z,-0.79
2023-03-29T23:59:52.806Z,-0.09
